sensor_id;sensor_type;location;lat;lon;timestamp;temperature;humidity
18412;DHT22;27097;51.738;19.472;2022-07-11T00:02:22;24.20;58.70
18412;DHT22;27097;51.738;19.472;2022-07-11T00:04:51;24.10;58.10
18412;DHT22;27097;51.738;19.472;2022-07-11T00:07:18;24.10;57.90
18412;DHT22;27097;51.738;19.472;2022-07-11T00:09:46;24.10;57.60
18412;DHT22;27097;51.738;19.472;2022-07-11T00:12:13;24.00;57.60
18412;DHT22;27097;51.738;19.472;2022-07-11T00:14:41;24.00;57.60
18412;DHT22;27097;51.738;19.472;2022-07-11T00:17:08;24.00;57.30
18412;DHT22;27097;51.738;19.472;2022-07-11T00:19:36;24.00;57.10
18412;DHT22;27097;51.738;19.472;2022-07-11T00:22:05;23.90;56.80
18412;DHT22;27097;51.738;19.472;2022-07-11T00:24:32;23.90;57.00
18412;DHT22;27097;51.738;19.472;2022-07-11T00:27:00;23.90;58.60
18412;DHT22;27097;51.738;19.472;2022-07-11T00:29:27;23.90;63.20
18412;DHT22;27097;51.738;19.472;2022-07-11T00:31:55;23.90;62.60
18412;DHT22;27097;51.738;19.472;2022-07-11T00:34:23;23.90;61.50
18412;DHT22;27097;51.738;19.472;2022-07-11T00:36:50;23.90;61.90
18412;DHT22;27097;51.738;19.472;2022-07-11T00:39:19;23.90;62.00
18412;DHT22;27097;51.738;19.472;2022-07-11T00:41:46;23.90;62.00
18412;DHT22;27097;51.738;19.472;2022-07-11T00:44:13;24.00;62.10
18412;DHT22;27097;51.738;19.472;2022-07-11T00:46:43;24.00;62.00
18412;DHT22;27097;51.738;19.472;2022-07-11T00:49:11;24.00;62.50
18412;DHT22;27097;51.738;19.472;2022-07-11T00:51:38;24.00;62.20
18412;DHT22;27097;51.738;19.472;2022-07-11T00:54:07;24.10;62.50
18412;DHT22;27097;51.738;19.472;2022-07-11T00:56:36;24.10;61.60
18412;DHT22;27097;51.738;19.472;2022-07-11T00:59:04;24.10;61.50
18412;DHT22;27097;51.738;19.472;2022-07-11T01:01:32;24.10;61.70
18412;DHT22;27097;51.738;19.472;2022-07-11T01:04:01;24.10;61.30
18412;DHT22;27097;51.738;19.472;2022-07-11T01:06:29;24.10;61.30
18412;DHT22;27097;51.738;19.472;2022-07-11T01:08:56;24.10;60.30
18412;DHT22;27097;51.738;19.472;2022-07-11T01:11:23;24.10;60.20
18412;DHT22;27097;51.738;19.472;2022-07-11T01:13:52;24.10;59.90
18412;DHT22;27097;51.738;19.472;2022-07-11T01:16:20;24.10;60.80
18412;DHT22;27097;51.738;19.472;2022-07-11T01:18:50;24.10;60.80
18412;DHT22;27097;51.738;19.472;2022-07-11T01:21:21;24.10;60.30
18412;DHT22;27097;51.738;19.472;2022-07-11T01:23:52;24.20;60.10
18412;DHT22;27097;51.738;19.472;2022-07-11T01:26:20;24.20;60.50
18412;DHT22;27097;51.738;19.472;2022-07-11T01:28:49;24.20;60.10
18412;DHT22;27097;51.738;19.472;2022-07-11T01:31:19;24.20;60.40
18412;DHT22;27097;51.738;19.472;2022-07-11T01:33:46;24.20;60.50
18412;DHT22;27097;51.738;19.472;2022-07-11T01:36:13;24.20;60.40
18412;DHT22;27097;51.738;19.472;2022-07-11T01:38:44;24.30;60.50
18412;DHT22;27097;51.738;19.472;2022-07-11T01:41:14;24.30;60.50
18412;DHT22;27097;51.738;19.472;2022-07-11T01:43:43;24.30;60.40
18412;DHT22;27097;51.738;19.472;2022-07-11T01:46:10;24.30;60.20
18412;DHT22;27097;51.738;19.472;2022-07-11T01:48:37;24.30;60.30
18412;DHT22;27097;51.738;19.472;2022-07-11T01:51:04;24.30;60.10
18412;DHT22;27097;51.738;19.472;2022-07-11T01:53:31;24.30;60.10
18412;DHT22;27097;51.738;19.472;2022-07-11T01:55:59;24.30;59.90
18412;DHT22;27097;51.738;19.472;2022-07-11T01:58:30;24.30;60.10
18412;DHT22;27097;51.738;19.472;2022-07-11T02:00:57;24.30;59.70
18412;DHT22;27097;51.738;19.472;2022-07-11T02:03:25;24.30;59.80
18412;DHT22;27097;51.738;19.472;2022-07-11T02:05:52;24.30;60.30
18412;DHT22;27097;51.738;19.472;2022-07-11T02:08:19;24.30;60.00
18412;DHT22;27097;51.738;19.472;2022-07-11T02:10:48;24.30;60.10
18412;DHT22;27097;51.738;19.472;2022-07-11T02:13:16;24.30;60.00
18412;DHT22;27097;51.738;19.472;2022-07-11T02:15:45;24.30;60.00
18412;DHT22;27097;51.738;19.472;2022-07-11T02:18:14;24.30;59.90
18412;DHT22;27097;51.738;19.472;2022-07-11T02:20:41;24.30;59.90
18412;DHT22;27097;51.738;19.472;2022-07-11T02:23:12;24.30;59.90
18412;DHT22;27097;51.738;19.472;2022-07-11T02:25:39;24.30;60.00
18412;DHT22;27097;51.738;19.472;2022-07-11T02:28:07;24.30;59.90
18412;DHT22;27097;51.738;19.472;2022-07-11T02:30:34;24.30;60.00
18412;DHT22;27097;51.738;19.472;2022-07-11T02:33:06;24.30;60.90
18412;DHT22;27097;51.738;19.472;2022-07-11T02:35:34;24.30;59.90
18412;DHT22;27097;51.738;19.472;2022-07-11T02:38:03;24.30;60.00
18412;DHT22;27097;51.738;19.472;2022-07-11T02:40:30;24.30;60.00
18412;DHT22;27097;51.738;19.472;2022-07-11T02:42:57;24.30;60.00
18412;DHT22;27097;51.738;19.472;2022-07-11T02:45:24;24.30;59.90
18412;DHT22;27097;51.738;19.472;2022-07-11T02:47:51;24.30;60.00
18412;DHT22;27097;51.738;19.472;2022-07-11T02:50:20;24.30;60.00
18412;DHT22;27097;51.738;19.472;2022-07-11T02:52:47;24.30;60.00
18412;DHT22;27097;51.738;19.472;2022-07-11T02:55:14;24.30;60.00
18412;DHT22;27097;51.738;19.472;2022-07-11T02:57:42;24.30;60.00
18412;DHT22;27097;51.738;19.472;2022-07-11T03:00:14;24.20;60.00
18412;DHT22;27097;51.738;19.472;2022-07-11T03:02:42;24.20;59.90
18412;DHT22;27097;51.738;19.472;2022-07-11T03:05:09;24.30;60.00
18412;DHT22;27097;51.738;19.472;2022-07-11T03:07:39;24.20;60.00
18412;DHT22;27097;51.738;19.472;2022-07-11T03:10:07;24.20;60.00
18412;DHT22;27097;51.738;19.472;2022-07-11T03:12:35;24.30;60.10
18412;DHT22;27097;51.738;19.472;2022-07-11T03:15:02;24.20;60.90
18412;DHT22;27097;51.738;19.472;2022-07-11T03:17:29;24.20;59.90
18412;DHT22;27097;51.738;19.472;2022-07-11T03:19:56;24.20;60.00
18412;DHT22;27097;51.738;19.472;2022-07-11T03:22:24;24.20;60.10
18412;DHT22;27097;51.738;19.472;2022-07-11T03:24:52;24.20;60.00
18412;DHT22;27097;51.738;19.472;2022-07-11T03:27:19;24.20;60.20
18412;DHT22;27097;51.738;19.472;2022-07-11T03:29:46;24.20;60.30
18412;DHT22;27097;51.738;19.472;2022-07-11T03:32:13;24.20;60.60
18412;DHT22;27097;51.738;19.472;2022-07-11T03:34:40;24.20;60.50
18412;DHT22;27097;51.738;19.472;2022-07-11T03:37:27;24.30;60.70
18412;DHT22;27097;51.738;19.472;2022-07-11T03:39:56;24.20;60.70
18412;DHT22;27097;51.738;19.472;2022-07-11T03:42:24;24.30;60.70
18412;DHT22;27097;51.738;19.472;2022-07-11T03:44:51;24.30;60.20
18412;DHT22;27097;51.738;19.472;2022-07-11T03:47:18;24.30;60.10
18412;DHT22;27097;51.738;19.472;2022-07-11T03:49:45;24.20;60.40
18412;DHT22;27097;51.738;19.472;2022-07-11T03:52:13;24.30;60.40
18412;DHT22;27097;51.738;19.472;2022-07-11T03:54:40;24.30;60.50
18412;DHT22;27097;51.738;19.472;2022-07-11T03:57:10;24.30;60.40
18412;DHT22;27097;51.738;19.472;2022-07-11T03:59:37;24.30;60.10
18412;DHT22;27097;51.738;19.472;2022-07-11T04:02:04;24.30;60.30
18412;DHT22;27097;51.738;19.472;2022-07-11T04:04:31;24.30;60.10
18412;DHT22;27097;51.738;19.472;2022-07-11T04:06:58;24.20;60.10
18412;DHT22;27097;51.738;19.472;2022-07-11T04:09:25;24.20;60.10
18412;DHT22;27097;51.738;19.472;2022-07-11T04:11:52;24.20;60.30
18412;DHT22;27097;51.738;19.472;2022-07-11T04:14:21;24.30;60.40
18412;DHT22;27097;51.738;19.472;2022-07-11T04:16:48;24.20;60.30
18412;DHT22;27097;51.738;19.472;2022-07-11T04:19:15;24.20;60.50
18412;DHT22;27097;51.738;19.472;2022-07-11T04:21:42;24.20;60.80
18412;DHT22;27097;51.738;19.472;2022-07-11T04:24:09;24.20;59.50
18412;DHT22;27097;51.738;19.472;2022-07-11T04:26:36;24.20;60.10
18412;DHT22;27097;51.738;19.472;2022-07-11T04:29:03;24.20;60.00
18412;DHT22;27097;51.738;19.472;2022-07-11T04:31:31;24.20;59.50
18412;DHT22;27097;51.738;19.472;2022-07-11T04:33:58;24.20;60.20
18412;DHT22;27097;51.738;19.472;2022-07-11T04:36:25;24.20;59.80
18412;DHT22;27097;51.738;19.472;2022-07-11T04:38:52;24.20;60.30
18412;DHT22;27097;51.738;19.472;2022-07-11T04:41:19;24.20;61.20
18412;DHT22;27097;51.738;19.472;2022-07-11T04:43:46;24.20;60.50
18412;DHT22;27097;51.738;19.472;2022-07-11T04:46:14;24.20;60.50
18412;DHT22;27097;51.738;19.472;2022-07-11T04:48:42;24.20;60.80
18412;DHT22;27097;51.738;19.472;2022-07-11T04:51:10;24.20;60.70
18412;DHT22;27097;51.738;19.472;2022-07-11T04:53:37;24.20;60.60
18412;DHT22;27097;51.738;19.472;2022-07-11T04:56:04;24.30;60.80
18412;DHT22;27097;51.738;19.472;2022-07-11T04:58:32;24.30;60.20
18412;DHT22;27097;51.738;19.472;2022-07-11T05:01:03;24.30;60.60
18412;DHT22;27097;51.738;19.472;2022-07-11T05:03:31;24.30;60.70
18412;DHT22;27097;51.738;19.472;2022-07-11T05:06:00;24.30;60.60
18412;DHT22;27097;51.738;19.472;2022-07-11T05:08:27;24.30;60.80
18412;DHT22;27097;51.738;19.472;2022-07-11T05:10:54;24.30;60.40
18412;DHT22;27097;51.738;19.472;2022-07-11T05:13:22;24.40;60.40
18412;DHT22;27097;51.738;19.472;2022-07-11T05:15:49;24.40;60.00
18412;DHT22;27097;51.738;19.472;2022-07-11T05:18:16;24.40;60.50
18412;DHT22;27097;51.738;19.472;2022-07-11T05:20:44;24.40;60.00
18412;DHT22;27097;51.738;19.472;2022-07-11T05:23:12;24.40;60.30
18412;DHT22;27097;51.738;19.472;2022-07-11T05:25:39;24.40;59.80
18412;DHT22;27097;51.738;19.472;2022-07-11T05:28:06;24.40;60.10
18412;DHT22;27097;51.738;19.472;2022-07-11T05:30:39;24.40;60.40
18412;DHT22;27097;51.738;19.472;2022-07-11T05:33:07;24.40;60.80
18412;DHT22;27097;51.738;19.472;2022-07-11T05:35:34;24.40;60.90
18412;DHT22;27097;51.738;19.472;2022-07-11T05:38:01;24.40;61.20
18412;DHT22;27097;51.738;19.472;2022-07-11T05:40:29;24.50;60.60
18412;DHT22;27097;51.738;19.472;2022-07-11T05:42:56;24.50;60.70
18412;DHT22;27097;51.738;19.472;2022-07-11T05:45:23;24.50;60.70
18412;DHT22;27097;51.738;19.472;2022-07-11T05:47:50;24.50;60.90
18412;DHT22;27097;51.738;19.472;2022-07-11T05:50:17;24.50;62.10
18412;DHT22;27097;51.738;19.472;2022-07-11T05:52:45;24.50;62.10
18412;DHT22;27097;51.738;19.472;2022-07-11T05:55:12;24.50;61.30
18412;DHT22;27097;51.738;19.472;2022-07-11T05:57:40;24.50;61.00
18412;DHT22;27097;51.738;19.472;2022-07-11T06:00:08;24.50;62.30
18412;DHT22;27097;51.738;19.472;2022-07-11T06:02:35;24.50;61.40
18412;DHT22;27097;51.738;19.472;2022-07-11T06:05:03;24.50;61.50
18412;DHT22;27097;51.738;19.472;2022-07-11T06:07:30;24.50;61.80
18412;DHT22;27097;51.738;19.472;2022-07-11T06:10:14;24.50;62.10
18412;DHT22;27097;51.738;19.472;2022-07-11T06:12:43;24.50;61.10
18412;DHT22;27097;51.738;19.472;2022-07-11T06:15:10;24.50;60.40
18412;DHT22;27097;51.738;19.472;2022-07-11T06:17:38;24.50;59.80
18412;DHT22;27097;51.738;19.472;2022-07-11T06:20:05;24.50;60.00
18412;DHT22;27097;51.738;19.472;2022-07-11T06:22:33;24.50;60.00
18412;DHT22;27097;51.738;19.472;2022-07-11T06:25:01;24.50;60.70
18412;DHT22;27097;51.738;19.472;2022-07-11T06:27:28;24.50;59.90
18412;DHT22;27097;51.738;19.472;2022-07-11T06:29:56;24.50;59.20
18412;DHT22;27097;51.738;19.472;2022-07-11T06:32:23;24.60;59.10
18412;DHT22;27097;51.738;19.472;2022-07-11T06:34:50;24.60;59.10
18412;DHT22;27097;51.738;19.472;2022-07-11T06:37:18;24.60;58.60
18412;DHT22;27097;51.738;19.472;2022-07-11T06:39:45;24.60;59.00
18412;DHT22;27097;51.738;19.472;2022-07-11T06:42:13;24.60;58.50
18412;DHT22;27097;51.738;19.472;2022-07-11T06:44:40;24.60;59.10
18412;DHT22;27097;51.738;19.472;2022-07-11T06:47:08;24.60;58.20
18412;DHT22;27097;51.738;19.472;2022-07-11T06:49:35;24.60;58.20
18412;DHT22;27097;51.738;19.472;2022-07-11T06:52:03;24.60;58.20
18412;DHT22;27097;51.738;19.472;2022-07-11T06:54:31;24.60;57.40
18412;DHT22;27097;51.738;19.472;2022-07-11T06:56:58;24.60;57.80
18412;DHT22;27097;51.738;19.472;2022-07-11T06:59:25;24.60;57.80
18412;DHT22;27097;51.738;19.472;2022-07-11T07:01:52;24.60;58.50
18412;DHT22;27097;51.738;19.472;2022-07-11T07:04:21;24.70;58.90
18412;DHT22;27097;51.738;19.472;2022-07-11T07:06:48;24.70;58.20
18412;DHT22;27097;51.738;19.472;2022-07-11T07:09:15;24.60;58.00
18412;DHT22;27097;51.738;19.472;2022-07-11T07:11:42;24.70;58.50
18412;DHT22;27097;51.738;19.472;2022-07-11T07:14:09;24.70;58.60
18412;DHT22;27097;51.738;19.472;2022-07-11T07:16:37;24.70;58.30
18412;DHT22;27097;51.738;19.472;2022-07-11T07:19:05;24.70;58.00
18412;DHT22;27097;51.738;19.472;2022-07-11T07:21:34;24.70;58.30
18412;DHT22;27097;51.738;19.472;2022-07-11T07:24:01;24.70;58.10
18412;DHT22;27097;51.738;19.472;2022-07-11T07:26:28;24.80;57.90
18412;DHT22;27097;51.738;19.472;2022-07-11T07:28:55;24.80;57.50
18412;DHT22;27097;51.738;19.472;2022-07-11T07:31:22;24.80;58.00
18412;DHT22;27097;51.738;19.472;2022-07-11T07:33:50;24.80;58.00
18412;DHT22;27097;51.738;19.472;2022-07-11T07:36:19;24.80;58.20
18412;DHT22;27097;51.738;19.472;2022-07-11T07:38:48;24.80;58.00
18412;DHT22;27097;51.738;19.472;2022-07-11T07:41:15;24.80;58.40
18412;DHT22;27097;51.738;19.472;2022-07-11T07:43:45;24.80;58.60
18412;DHT22;27097;51.738;19.472;2022-07-11T07:46:14;24.80;58.20
18412;DHT22;27097;51.738;19.472;2022-07-11T07:48:41;24.90;58.80
18412;DHT22;27097;51.738;19.472;2022-07-11T07:51:09;24.90;58.90
18412;DHT22;27097;51.738;19.472;2022-07-11T07:53:36;24.90;58.30
18412;DHT22;27097;51.738;19.472;2022-07-11T07:56:05;24.90;58.60
18412;DHT22;27097;51.738;19.472;2022-07-11T07:58:32;24.90;58.20
18412;DHT22;27097;51.738;19.472;2022-07-11T08:00:59;24.90;59.00
18412;DHT22;27097;51.738;19.472;2022-07-11T08:03:44;24.90;58.60
18412;DHT22;27097;51.738;19.472;2022-07-11T08:06:14;24.90;58.30
18412;DHT22;27097;51.738;19.472;2022-07-11T08:08:42;24.90;57.80
18412;DHT22;27097;51.738;19.472;2022-07-11T08:11:10;24.90;58.40
18412;DHT22;27097;51.738;19.472;2022-07-11T08:13:37;24.90;58.90
18412;DHT22;27097;51.738;19.472;2022-07-11T08:16:07;24.90;58.50
18412;DHT22;27097;51.738;19.472;2022-07-11T08:18:35;24.90;58.60
18412;DHT22;27097;51.738;19.472;2022-07-11T08:21:02;24.90;58.00
18412;DHT22;27097;51.738;19.472;2022-07-11T08:23:29;24.90;57.80
18412;DHT22;27097;51.738;19.472;2022-07-11T08:25:57;24.90;57.90
18412;DHT22;27097;51.738;19.472;2022-07-11T08:28:25;24.90;58.20
18412;DHT22;27097;51.738;19.472;2022-07-11T08:30:53;24.90;57.80
18412;DHT22;27097;51.738;19.472;2022-07-11T08:33:20;24.90;57.80
18412;DHT22;27097;51.738;19.472;2022-07-11T08:35:47;24.90;57.80
18412;DHT22;27097;51.738;19.472;2022-07-11T08:38:14;24.90;57.60
18412;DHT22;27097;51.738;19.472;2022-07-11T08:40:42;24.90;57.60
18412;DHT22;27097;51.738;19.472;2022-07-11T08:43:13;24.90;58.30
18412;DHT22;27097;51.738;19.472;2022-07-11T08:45:43;24.90;58.60
18412;DHT22;27097;51.738;19.472;2022-07-11T08:48:10;24.90;58.70
18412;DHT22;27097;51.738;19.472;2022-07-11T08:50:38;24.90;59.40
18412;DHT22;27097;51.738;19.472;2022-07-11T08:53:05;24.90;60.20
18412;DHT22;27097;51.738;19.472;2022-07-11T08:55:32;24.90;60.90
18412;DHT22;27097;51.738;19.472;2022-07-11T08:57:59;24.90;59.90
18412;DHT22;27097;51.738;19.472;2022-07-11T09:00:28;24.80;59.10
18412;DHT22;27097;51.738;19.472;2022-07-11T09:02:58;24.80;60.20
18412;DHT22;27097;51.738;19.472;2022-07-11T09:05:26;24.80;59.80
18412;DHT22;27097;51.738;19.472;2022-07-11T09:07:54;24.70;59.10
18412;DHT22;27097;51.738;19.472;2022-07-11T09:10:21;24.70;59.50
18412;DHT22;27097;51.738;19.472;2022-07-11T09:12:58;24.70;59.10
18412;DHT22;27097;51.738;19.472;2022-07-11T09:15:41;24.70;59.70
18412;DHT22;27097;51.738;19.472;2022-07-11T09:18:31;24.70;59.50
18412;DHT22;27097;51.738;19.472;2022-07-11T09:21:00;24.70;59.90
18412;DHT22;27097;51.738;19.472;2022-07-11T09:23:45;24.70;59.20
18412;DHT22;27097;51.738;19.472;2022-07-11T09:26:31;24.70;59.50
18412;DHT22;27097;51.738;19.472;2022-07-11T09:28:59;24.70;58.90
18412;DHT22;27097;51.738;19.472;2022-07-11T09:31:31;24.70;59.70
18412;DHT22;27097;51.738;19.472;2022-07-11T09:34:01;24.70;59.20
18412;DHT22;27097;51.738;19.472;2022-07-11T09:36:50;24.70;59.30
18412;DHT22;27097;51.738;19.472;2022-07-11T09:39:21;24.70;58.40
18412;DHT22;27097;51.738;19.472;2022-07-11T09:41:49;24.80;59.00
18412;DHT22;27097;51.738;19.472;2022-07-11T09:44:20;24.90;58.60
18412;DHT22;27097;51.738;19.472;2022-07-11T09:46:49;24.90;59.40
18412;DHT22;27097;51.738;19.472;2022-07-11T09:49:31;24.90;59.00
18412;DHT22;27097;51.738;19.472;2022-07-11T09:52:07;25.00;59.30
18412;DHT22;27097;51.738;19.472;2022-07-11T09:54:53;25.00;58.00
18412;DHT22;27097;51.738;19.472;2022-07-11T09:57:31;25.10;58.80
18412;DHT22;27097;51.738;19.472;2022-07-11T09:59:59;25.10;57.90
18412;DHT22;27097;51.738;19.472;2022-07-11T10:02:26;25.00;60.20
18412;DHT22;27097;51.738;19.472;2022-07-11T10:04:55;25.00;59.30
18412;DHT22;27097;51.738;19.472;2022-07-11T10:07:26;25.00;58.80
18412;DHT22;27097;51.738;19.472;2022-07-11T10:09:53;25.00;58.30
18412;DHT22;27097;51.738;19.472;2022-07-11T10:12:21;25.10;57.90
18412;DHT22;27097;51.738;19.472;2022-07-11T10:14:49;25.10;56.70
18412;DHT22;27097;51.738;19.472;2022-07-11T10:17:23;25.10;58.60
18412;DHT22;27097;51.738;19.472;2022-07-11T10:20:03;25.10;59.00
18412;DHT22;27097;51.738;19.472;2022-07-11T10:22:39;25.10;59.00
18412;DHT22;27097;51.738;19.472;2022-07-11T10:25:22;25.10;56.30
18412;DHT22;27097;51.738;19.472;2022-07-11T10:28:03;25.10;58.20
18412;DHT22;27097;51.738;19.472;2022-07-11T10:30:46;25.10;56.50
18412;DHT22;27097;51.738;19.472;2022-07-11T10:33:17;25.20;55.30
18412;DHT22;27097;51.738;19.472;2022-07-11T10:35:50;25.30;55.60
18412;DHT22;27097;51.738;19.472;2022-07-11T10:38:18;25.30;56.60
18412;DHT22;27097;51.738;19.472;2022-07-11T10:40:48;25.30;57.10
18412;DHT22;27097;51.738;19.472;2022-07-11T10:43:35;25.30;57.70
18412;DHT22;27097;51.738;19.472;2022-07-11T10:46:08;25.20;57.50
18412;DHT22;27097;51.738;19.472;2022-07-11T10:48:36;25.30;57.40
18412;DHT22;27097;51.738;19.472;2022-07-11T10:51:27;25.30;58.10
18412;DHT22;27097;51.738;19.472;2022-07-11T10:54:03;25.30;58.00
18412;DHT22;27097;51.738;19.472;2022-07-11T10:56:48;25.20;58.00
18412;DHT22;27097;51.738;19.472;2022-07-11T10:59:20;25.30;56.50
18412;DHT22;27097;51.738;19.472;2022-07-11T11:02:10;25.30;56.80
18412;DHT22;27097;51.738;19.472;2022-07-11T11:04:47;25.30;57.20
18412;DHT22;27097;51.738;19.472;2022-07-11T11:07:30;25.30;57.70
18412;DHT22;27097;51.738;19.472;2022-07-11T11:09:58;25.30;57.30
18412;DHT22;27097;51.738;19.472;2022-07-11T11:15:33;25.20;58.00
18412;DHT22;27097;51.738;19.472;2022-07-11T11:18:33;25.20;58.40
18412;DHT22;27097;51.738;19.472;2022-07-11T11:21:21;25.10;59.20
18412;DHT22;27097;51.738;19.472;2022-07-11T11:24:05;25.10;58.40
18412;DHT22;27097;51.738;19.472;2022-07-11T11:26:49;25.10;58.60
18412;DHT22;27097;51.738;19.472;2022-07-11T11:29:24;25.10;56.60
18412;DHT22;27097;51.738;19.472;2022-07-11T11:31:55;25.10;59.20
18412;DHT22;27097;51.738;19.472;2022-07-11T11:34:22;25.10;57.90
18412;DHT22;27097;51.738;19.472;2022-07-11T11:36:54;25.10;58.10
18412;DHT22;27097;51.738;19.472;2022-07-11T11:39:28;25.10;55.50
18412;DHT22;27097;51.738;19.472;2022-07-11T11:42:03;25.20;57.50
18412;DHT22;27097;51.738;19.472;2022-07-11T11:44:34;25.20;57.60
18412;DHT22;27097;51.738;19.472;2022-07-11T11:49:42;25.20;58.40
18412;DHT22;27097;51.738;19.472;2022-07-11T11:52:09;25.20;58.70
18412;DHT22;27097;51.738;19.472;2022-07-11T11:54:38;25.10;58.00
18412;DHT22;27097;51.738;19.472;2022-07-11T11:57:06;25.10;56.70
18412;DHT22;27097;51.738;19.472;2022-07-11T11:59:34;25.10;56.70
18412;DHT22;27097;51.738;19.472;2022-07-11T12:02:01;25.10;56.80
18412;DHT22;27097;51.738;19.472;2022-07-11T12:04:30;25.10;56.20
18412;DHT22;27097;51.738;19.472;2022-07-11T12:06:59;25.10;56.00
18412;DHT22;27097;51.738;19.472;2022-07-11T12:09:27;25.10;57.00
18412;DHT22;27097;51.738;19.472;2022-07-11T12:12:17;25.10;56.40
18412;DHT22;27097;51.738;19.472;2022-07-11T12:15:02;25.10;56.70
18412;DHT22;27097;51.738;19.472;2022-07-11T12:17:30;25.10;57.00
18412;DHT22;27097;51.738;19.472;2022-07-11T12:19:57;25.10;57.20
18412;DHT22;27097;51.738;19.472;2022-07-11T12:22:24;25.10;56.80
18412;DHT22;27097;51.738;19.472;2022-07-11T12:24:53;25.10;57.30
18412;DHT22;27097;51.738;19.472;2022-07-11T12:27:24;25.10;57.20
18412;DHT22;27097;51.738;19.472;2022-07-11T12:29:52;25.10;57.20
18412;DHT22;27097;51.738;19.472;2022-07-11T12:32:20;25.10;57.60
18412;DHT22;27097;51.738;19.472;2022-07-11T12:34:48;25.10;57.70
18412;DHT22;27097;51.738;19.472;2022-07-11T12:37:17;25.10;58.00
18412;DHT22;27097;51.738;19.472;2022-07-11T12:39:48;25.10;57.80
18412;DHT22;27097;51.738;19.472;2022-07-11T12:42:25;25.10;57.80
18412;DHT22;27097;51.738;19.472;2022-07-11T12:44:56;25.10;58.60
18412;DHT22;27097;51.738;19.472;2022-07-11T12:47:25;25.10;57.80
18412;DHT22;27097;51.738;19.472;2022-07-11T12:49:53;25.10;57.40
18412;DHT22;27097;51.738;19.472;2022-07-11T12:52:20;25.10;57.40
18412;DHT22;27097;51.738;19.472;2022-07-11T12:54:47;25.10;56.50
18412;DHT22;27097;51.738;19.472;2022-07-11T12:57:16;25.20;57.80
18412;DHT22;27097;51.738;19.472;2022-07-11T12:59:45;25.10;57.70
18412;DHT22;27097;51.738;19.472;2022-07-11T13:02:13;25.20;57.60
18412;DHT22;27097;51.738;19.472;2022-07-11T13:04:42;25.20;57.30
18412;DHT22;27097;51.738;19.472;2022-07-11T13:07:33;25.20;58.00
18412;DHT22;27097;51.738;19.472;2022-07-11T13:10:19;25.20;56.90
18412;DHT22;27097;51.738;19.472;2022-07-11T13:12:47;25.20;57.30
18412;DHT22;27097;51.738;19.472;2022-07-11T13:15:17;25.10;57.00
18412;DHT22;27097;51.738;19.472;2022-07-11T13:17:46;25.10;57.80
18412;DHT22;27097;51.738;19.472;2022-07-11T13:20:16;25.10;57.70
18412;DHT22;27097;51.738;19.472;2022-07-11T13:22:46;25.10;57.30
18412;DHT22;27097;51.738;19.472;2022-07-11T13:25:15;25.10;56.50
18412;DHT22;27097;51.738;19.472;2022-07-11T13:27:43;25.10;56.80
18412;DHT22;27097;51.738;19.472;2022-07-11T13:30:12;25.10;56.80
18412;DHT22;27097;51.738;19.472;2022-07-11T13:32:44;25.10;57.70
18412;DHT22;27097;51.738;19.472;2022-07-11T13:35:11;25.10;56.70
18412;DHT22;27097;51.738;19.472;2022-07-11T13:37:40;25.10;56.10
18412;DHT22;27097;51.738;19.472;2022-07-11T13:40:09;25.10;56.30
18412;DHT22;27097;51.738;19.472;2022-07-11T13:42:37;25.10;56.20
18412;DHT22;27097;51.738;19.472;2022-07-11T13:45:07;25.10;56.30
18412;DHT22;27097;51.738;19.472;2022-07-11T13:47:35;25.10;55.90
18412;DHT22;27097;51.738;19.472;2022-07-11T13:50:04;25.10;56.80
18412;DHT22;27097;51.738;19.472;2022-07-11T13:52:32;25.10;55.90
18412;DHT22;27097;51.738;19.472;2022-07-11T13:55:03;25.10;55.70
18412;DHT22;27097;51.738;19.472;2022-07-11T13:57:42;25.10;56.00
18412;DHT22;27097;51.738;19.472;2022-07-11T14:00:10;25.10;55.80
18412;DHT22;27097;51.738;19.472;2022-07-11T14:02:37;25.00;55.60
18412;DHT22;27097;51.738;19.472;2022-07-11T14:05:07;25.10;56.10
18412;DHT22;27097;51.738;19.472;2022-07-11T14:07:35;25.10;55.80
18412;DHT22;27097;51.738;19.472;2022-07-11T14:10:02;25.00;56.40
18412;DHT22;27097;51.738;19.472;2022-07-11T14:12:30;25.10;55.90
18412;DHT22;27097;51.738;19.472;2022-07-11T14:14:57;25.10;55.20
18412;DHT22;27097;51.738;19.472;2022-07-11T14:17:24;25.10;55.40
18412;DHT22;27097;51.738;19.472;2022-07-11T14:19:52;25.10;55.40
18412;DHT22;27097;51.738;19.472;2022-07-11T14:22:21;25.10;55.70
18412;DHT22;27097;51.738;19.472;2022-07-11T14:24:48;25.10;55.40
18412;DHT22;27097;51.738;19.472;2022-07-11T14:27:15;25.00;55.40
18412;DHT22;27097;51.738;19.472;2022-07-11T14:29:45;25.00;55.90
18412;DHT22;27097;51.738;19.472;2022-07-11T14:32:13;25.00;56.50
18412;DHT22;27097;51.738;19.472;2022-07-11T14:34:42;25.00;56.40
18412;DHT22;27097;51.738;19.472;2022-07-11T14:37:12;25.00;56.30
18412;DHT22;27097;51.738;19.472;2022-07-11T14:39:47;24.90;56.50
18412;DHT22;27097;51.738;19.472;2022-07-11T14:42:14;24.90;56.90
18412;DHT22;27097;51.738;19.472;2022-07-11T14:44:41;24.90;56.80
18412;DHT22;27097;51.738;19.472;2022-07-11T14:47:08;24.90;57.00
18412;DHT22;27097;51.738;19.472;2022-07-11T14:49:38;24.90;56.40
18412;DHT22;27097;51.738;19.472;2022-07-11T14:52:06;24.90;56.30
18412;DHT22;27097;51.738;19.472;2022-07-11T14:54:33;24.80;55.90
18412;DHT22;27097;51.738;19.472;2022-07-11T14:57:02;24.80;56.30
18412;DHT22;27097;51.738;19.472;2022-07-11T14:59:29;24.80;56.70
18412;DHT22;27097;51.738;19.472;2022-07-11T15:01:56;24.70;57.20
18412;DHT22;27097;51.738;19.472;2022-07-11T15:04:23;24.70;57.40
18412;DHT22;27097;51.738;19.472;2022-07-11T15:06:50;24.70;57.20
18412;DHT22;27097;51.738;19.472;2022-07-11T15:09:42;24.70;57.30
18412;DHT22;27097;51.738;19.472;2022-07-11T15:12:28;24.70;57.70
18412;DHT22;27097;51.738;19.472;2022-07-11T15:14:55;24.70;57.70
18412;DHT22;27097;51.738;19.472;2022-07-11T15:17:23;24.70;57.70
18412;DHT22;27097;51.738;19.472;2022-07-11T15:19:50;24.70;58.00
18412;DHT22;27097;51.738;19.472;2022-07-11T15:22:18;24.70;58.10
18412;DHT22;27097;51.738;19.472;2022-07-11T15:24:50;24.70;58.00
18412;DHT22;27097;51.738;19.472;2022-07-11T15:27:19;24.70;58.20
18412;DHT22;27097;51.738;19.472;2022-07-11T15:30:09;24.70;58.00
18412;DHT22;27097;51.738;19.472;2022-07-11T15:32:50;24.70;58.20
18412;DHT22;27097;51.738;19.472;2022-07-11T15:35:17;24.70;58.10
18412;DHT22;27097;51.738;19.472;2022-07-11T15:37:45;24.70;58.10